sensor_id;sensor_type;location;lat;lon;timestamp;P1;durP1;ratioP1;P2;durP2;ratioP2
82255;SDS011;72145;34.434;-117.370;2023-09-07T00:00:26;19.23;;;17.92;;
82255;SDS011;72145;34.434;-117.370;2023-09-07T00:00:59;17.67;;;16.23;;
82255;SDS011;72145;34.434;-117.370;2023-09-07T00:01:37;15.63;;;14.63;;
82255;SDS011;72145;34.434;-117.370;2023-09-07T00:02:13;20.75;;;19.42;;
82255;SDS011;72145;34.434;-117.370;2023-09-07T00:02:46;19.08;;;17.90;;
82255;SDS011;72145;34.434;-117.370;2023-09-07T00:03:22;18.55;;;17.35;;
82255;SDS011;72145;34.434;-117.370;2023-09-07T00:03:55;20.00;;;18.67;;
82255;SDS011;72145;34.434;-117.370;2023-09-07T00:04:32;17.52;;;16.30;;
82255;SDS011;72145;34.434;-117.370;2023-09-07T00:05:08;15.43;;;14.43;;
82255;SDS011;72145;34.434;-117.370;2023-09-07T00:05:42;14.32;;;13.38;;
82255;SDS011;72145;34.434;-117.370;2023-09-07T00:06:15;20.02;;;18.73;;
82255;SDS011;72145;34.434;-117.370;2023-09-07T00:06:49;20.27;;;18.83;;
82255;SDS011;72145;34.434;-117.370;2023-09-07T00:07:26;17.73;;;16.52;;
82255;SDS011;72145;34.434;-117.370;2023-09-07T00:08:00;19.92;;;18.73;;
82255;SDS011;72145;34.434;-117.370;2023-09-07T00:08:33;10.57;;;9.68;;
82255;SDS011;72145;34.434;-117.370;2023-09-07T00:09:06;9.82;;;8.68;;
82255;SDS011;72145;34.434;-117.370;2023-09-07T00:09:40;12.93;;;11.05;;
82255;SDS011;72145;34.434;-117.370;2023-09-07T00:10:13;10.05;;;9.25;;
82255;SDS011;72145;34.434;-117.370;2023-09-07T00:10:50;10.77;;;9.88;;
82255;SDS011;72145;34.434;-117.370;2023-09-07T00:11:24;13.60;;;12.63;;
82255;SDS011;72145;34.434;-117.370;2023-09-07T00:12:02;14.30;;;13.10;;
82255;SDS011;72145;34.434;-117.370;2023-09-07T00:12:35;17.75;;;16.55;;
82255;SDS011;72145;34.434;-117.370;2023-09-07T00:13:11;18.80;;;17.50;;
82255;SDS011;72145;34.434;-117.370;2023-09-07T00:13:47;9.95;;;9.15;;
82255;SDS011;72145;34.434;-117.370;2023-09-07T00:14:20;10.25;;;8.13;;
82255;SDS011;72145;34.434;-117.370;2023-09-07T00:14:54;12.88;;;11.73;;
82255;SDS011;72145;34.434;-117.370;2023-09-07T00:15:28;7.03;;;6.43;;
82255;SDS011;72145;34.434;-117.370;2023-09-07T00:16:05;7.97;;;7.28;;
82255;SDS011;72145;34.434;-117.370;2023-09-07T00:16:39;9.07;;;8.27;;
82255;SDS011;72145;34.434;-117.370;2023-09-07T00:17:13;8.85;;;7.95;;
82255;SDS011;72145;34.434;-117.370;2023-09-07T00:17:46;9.55;;;8.60;;
82255;SDS011;72145;34.434;-117.370;2023-09-07T00:18:20;9.82;;;7.97;;
82255;SDS011;72145;34.434;-117.370;2023-09-07T00:18:55;7.72;;;6.93;;
82255;SDS011;72145;34.434;-117.370;2023-09-07T00:19:28;7.38;;;6.68;;
82255;SDS011;72145;34.434;-117.370;2023-09-07T00:20:04;8.20;;;7.05;;
82255;SDS011;72145;34.434;-117.370;2023-09-07T00:20:47;7.75;;;6.55;;
82255;SDS011;72145;34.434;-117.370;2023-09-07T00:21:20;7.65;;;6.85;;
82255;SDS011;72145;34.434;-117.370;2023-09-07T00:21:58;7.35;;;6.65;;
82255;SDS011;72145;34.434;-117.370;2023-09-07T00:22:36;7.88;;;7.15;;
82255;SDS011;72145;34.434;-117.370;2023-09-07T00:23:10;12.45;;;11.18;;
82255;SDS011;72145;34.434;-117.370;2023-09-07T00:23:47;16.40;;;15.23;;
82255;SDS011;72145;34.434;-117.370;2023-09-07T00:24:20;19.08;;;17.88;;
82255;SDS011;72145;34.434;-117.370;2023-09-07T00:24:55;19.38;;;18.08;;
82255;SDS011;72145;34.434;-117.370;2023-09-07T00:25:28;15.05;;;13.95;;
82255;SDS011;72145;34.434;-117.370;2023-09-07T00:26:05;16.13;;;14.70;;
82255;SDS011;72145;34.434;-117.370;2023-09-07T00:26:40;14.13;;;13.20;;
82255;SDS011;72145;34.434;-117.370;2023-09-07T00:27:13;8.85;;;8.05;;
82255;SDS011;72145;34.434;-117.370;2023-09-07T00:27:46;8.85;;;7.95;;
82255;SDS011;72145;34.434;-117.370;2023-09-07T00:28:20;12.02;;;10.93;;
82255;SDS011;72145;34.434;-117.370;2023-09-07T00:28:56;16.67;;;15.57;;
82255;SDS011;72145;34.434;-117.370;2023-09-07T00:29:29;13.23;;;12.30;;
82255;SDS011;72145;34.434;-117.370;2023-09-07T00:30:02;16.67;;;15.65;;
82255;SDS011;72145;34.434;-117.370;2023-09-07T00:30:44;14.80;;;13.57;;
82255;SDS011;72145;34.434;-117.370;2023-09-07T00:31:17;15.77;;;14.57;;
82255;SDS011;72145;34.434;-117.370;2023-09-07T00:31:50;13.30;;;12.43;;
82255;SDS011;72145;34.434;-117.370;2023-09-07T00:32:24;12.30;;;11.40;;
82255;SDS011;72145;34.434;-117.370;2023-09-07T00:33:00;17.92;;;16.73;;
82255;SDS011;72145;34.434;-117.370;2023-09-07T00:33:33;14.15;;;13.07;;
82255;SDS011;72145;34.434;-117.370;2023-09-07T00:34:09;18.17;;;16.98;;
82255;SDS011;72145;34.434;-117.370;2023-09-07T00:34:42;13.55;;;12.45;;
82255;SDS011;72145;34.434;-117.370;2023-09-07T00:35:15;12.23;;;11.23;;
82255;SDS011;72145;34.434;-117.370;2023-09-07T00:35:48;12.32;;;11.30;;
82255;SDS011;72145;34.434;-117.370;2023-09-07T00:36:21;16.13;;;14.90;;
82255;SDS011;72145;34.434;-117.370;2023-09-07T00:37:00;16.00;;;14.88;;
82255;SDS011;72145;34.434;-117.370;2023-09-07T00:37:33;12.90;;;11.95;;
82255;SDS011;72145;34.434;-117.370;2023-09-07T00:38:07;6.32;;;5.43;;
82255;SDS011;72145;34.434;-117.370;2023-09-07T00:38:40;7.32;;;6.38;;
82255;SDS011;72145;34.434;-117.370;2023-09-07T00:39:15;10.35;;;9.43;;
82255;SDS011;72145;34.434;-117.370;2023-09-07T00:39:51;10.73;;;9.82;;
82255;SDS011;72145;34.434;-117.370;2023-09-07T00:40:25;10.23;;;9.23;;
82255;SDS011;72145;34.434;-117.370;2023-09-07T00:40:58;11.07;;;10.07;;
82255;SDS011;72145;34.434;-117.370;2023-09-07T00:41:31;13.20;;;12.27;;
82255;SDS011;72145;34.434;-117.370;2023-09-07T00:42:05;14.02;;;12.82;;
82255;SDS011;72145;34.434;-117.370;2023-09-07T00:42:38;12.60;;;11.60;;
82255;SDS011;72145;34.434;-117.370;2023-09-07T00:43:14;14.23;;;13.13;;
82255;SDS011;72145;34.434;-117.370;2023-09-07T00:43:47;19.55;;;18.20;;
82255;SDS011;72145;34.434;-117.370;2023-09-07T00:44:20;13.02;;;11.93;;
82255;SDS011;72145;34.434;-117.370;2023-09-07T00:44:58;13.43;;;12.43;;
82255;SDS011;72145;34.434;-117.370;2023-09-07T00:45:31;12.52;;;11.50;;
82255;SDS011;72145;34.434;-117.370;2023-09-07T00:46:10;12.80;;;11.90;;
82255;SDS011;72145;34.434;-117.370;2023-09-07T00:46:44;13.70;;;12.57;;
82255;SDS011;72145;34.434;-117.370;2023-09-07T00:47:17;13.43;;;12.32;;
82255;SDS011;72145;34.434;-117.370;2023-09-07T00:47:51;18.73;;;17.42;;
82255;SDS011;72145;34.434;-117.370;2023-09-07T00:48:24;20.52;;;19.13;;
82255;SDS011;72145;34.434;-117.370;2023-09-07T00:48:57;18.40;;;17.10;;
82255;SDS011;72145;34.434;-117.370;2023-09-07T00:49:31;22.88;;;21.48;;
82255;SDS011;72145;34.434;-117.370;2023-09-07T00:50:05;21.45;;;20.05;;
82255;SDS011;72145;34.434;-117.370;2023-09-07T00:50:40;22.17;;;20.75;;
82255;SDS011;72145;34.434;-117.370;2023-09-07T00:51:13;21.05;;;19.67;;
82255;SDS011;72145;34.434;-117.370;2023-09-07T00:51:47;18.02;;;16.83;;
82255;SDS011;72145;34.434;-117.370;2023-09-07T00:52:20;13.15;;;12.18;;
82255;SDS011;72145;34.434;-117.370;2023-09-07T00:52:54;13.30;;;12.18;;
82255;SDS011;72145;34.434;-117.370;2023-09-07T00:53:36;12.63;;;11.73;;
82255;SDS011;72145;34.434;-117.370;2023-09-07T00:54:09;14.95;;;13.52;;
82255;SDS011;72145;34.434;-117.370;2023-09-07T00:54:42;14.20;;;12.98;;
82255;SDS011;72145;34.434;-117.370;2023-09-07T00:55:16;15.20;;;13.77;;
82255;SDS011;72145;34.434;-117.370;2023-09-07T00:55:50;12.68;;;11.57;;
82255;SDS011;72145;34.434;-117.370;2023-09-07T00:56:24;12.43;;;11.38;;
82255;SDS011;72145;34.434;-117.370;2023-09-07T00:57:03;10.15;;;9.25;;
82255;SDS011;72145;34.434;-117.370;2023-09-07T00:57:38;10.70;;;8.90;;
82255;SDS011;72145;34.434;-117.370;2023-09-07T00:58:14;10.40;;;9.43;;
82255;SDS011;72145;34.434;-117.370;2023-09-07T00:58:48;11.55;;;10.48;;
82255;SDS011;72145;34.434;-117.370;2023-09-07T00:59:22;12.60;;;11.40;;
82255;SDS011;72145;34.434;-117.370;2023-09-07T00:59:56;15.93;;;14.63;;
82255;SDS011;72145;34.434;-117.370;2023-09-07T01:00:29;15.85;;;14.70;;
82255;SDS011;72145;34.434;-117.370;2023-09-07T01:01:03;15.23;;;13.98;;
82255;SDS011;72145;34.434;-117.370;2023-09-07T01:01:36;12.43;;;11.05;;
82255;SDS011;72145;34.434;-117.370;2023-09-07T01:02:15;11.43;;;10.40;;
82255;SDS011;72145;34.434;-117.370;2023-09-07T01:02:48;8.45;;;7.68;;
82255;SDS011;72145;34.434;-117.370;2023-09-07T01:03:22;8.13;;;7.30;;
82255;SDS011;72145;34.434;-117.370;2023-09-07T01:03:59;9.52;;;8.73;;
82255;SDS011;72145;34.434;-117.370;2023-09-07T01:04:37;9.43;;;8.60;;
82255;SDS011;72145;34.434;-117.370;2023-09-07T01:05:16;9.35;;;8.55;;
82255;SDS011;72145;34.434;-117.370;2023-09-07T01:05:55;9.85;;;8.90;;
82255;SDS011;72145;34.434;-117.370;2023-09-07T01:06:37;9.85;;;8.95;;
82255;SDS011;72145;34.434;-117.370;2023-09-07T01:07:24;10.77;;;9.77;;
82255;SDS011;72145;34.434;-117.370;2023-09-07T01:08:11;10.02;;;9.13;;
82255;SDS011;72145;34.434;-117.370;2023-09-07T01:09:11;10.43;;;9.52;;
82255;SDS011;72145;34.434;-117.370;2023-09-07T01:09:56;11.90;;;10.77;;
82255;SDS011;72145;34.434;-117.370;2023-09-07T01:10:32;9.55;;;8.57;;
82255;SDS011;72145;34.434;-117.370;2023-09-07T01:11:15;10.27;;;9.27;;
82255;SDS011;72145;34.434;-117.370;2023-09-07T01:11:50;9.65;;;8.85;;
82255;SDS011;72145;34.434;-117.370;2023-09-07T01:12:25;9.73;;;8.93;;
82255;SDS011;72145;34.434;-117.370;2023-09-07T01:13:01;10.40;;;9.38;;
82255;SDS011;72145;34.434;-117.370;2023-09-07T01:13:34;10.73;;;9.40;;
82255;SDS011;72145;34.434;-117.370;2023-09-07T01:14:08;9.75;;;8.85;;
82255;SDS011;72145;34.434;-117.370;2023-09-07T01:14:41;10.43;;;9.52;;
82255;SDS011;72145;34.434;-117.370;2023-09-07T01:15:18;9.18;;;8.18;;
82255;SDS011;72145;34.434;-117.370;2023-09-07T01:15:51;9.88;;;8.88;;
82255;SDS011;72145;34.434;-117.370;2023-09-07T01:16:28;12.25;;;9.77;;
82255;SDS011;72145;34.434;-117.370;2023-09-07T01:17:19;14.48;;;13.05;;
82255;SDS011;72145;34.434;-117.370;2023-09-07T01:17:56;14.95;;;13.07;;
82255;SDS011;72145;34.434;-117.370;2023-09-07T01:18:51;13.13;;;11.93;;
82255;SDS011;72145;34.434;-117.370;2023-09-07T01:19:25;12.60;;;11.38;;
82255;SDS011;72145;34.434;-117.370;2023-09-07T01:20:13;15.13;;;13.60;;
82255;SDS011;72145;34.434;-117.370;2023-09-07T01:20:49;13.02;;;11.93;;
82255;SDS011;72145;34.434;-117.370;2023-09-07T01:21:23;11.93;;;10.82;;
82255;SDS011;72145;34.434;-117.370;2023-09-07T01:21:57;13.60;;;12.20;;
82255;SDS011;72145;34.434;-117.370;2023-09-07T01:22:33;15.38;;;14.00;;
82255;SDS011;72145;34.434;-117.370;2023-09-07T01:23:08;15.25;;;13.82;;
82255;SDS011;72145;34.434;-117.370;2023-09-07T01:23:42;14.02;;;12.77;;
82255;SDS011;72145;34.434;-117.370;2023-09-07T01:24:17;14.75;;;13.55;;
82255;SDS011;72145;34.434;-117.370;2023-09-07T01:24:51;13.77;;;12.52;;
82255;SDS011;72145;34.434;-117.370;2023-09-07T01:25:25;14.02;;;12.65;;
82255;SDS011;72145;34.434;-117.370;2023-09-07T01:26:03;15.15;;;13.65;;
82255;SDS011;72145;34.434;-117.370;2023-09-07T01:26:40;14.90;;;13.68;;
82255;SDS011;72145;34.434;-117.370;2023-09-07T01:27:18;15.63;;;14.25;;
82255;SDS011;72145;34.434;-117.370;2023-09-07T01:27:54;14.48;;;13.38;;
82255;SDS011;72145;34.434;-117.370;2023-09-07T01:28:28;16.25;;;14.85;;
82255;SDS011;72145;34.434;-117.370;2023-09-07T01:29:02;15.63;;;14.50;;
82255;SDS011;72145;34.434;-117.370;2023-09-07T01:29:35;16.02;;;14.63;;
82255;SDS011;72145;34.434;-117.370;2023-09-07T01:30:12;18.27;;;16.92;;
82255;SDS011;72145;34.434;-117.370;2023-09-07T01:30:45;20.40;;;18.88;;
82255;SDS011;72145;34.434;-117.370;2023-09-07T01:31:19;22.80;;;21.00;;
82255;SDS011;72145;34.434;-117.370;2023-09-07T01:31:52;17.00;;;15.70;;
82255;SDS011;72145;34.434;-117.370;2023-09-07T01:32:29;20.85;;;17.33;;
82255;SDS011;72145;34.434;-117.370;2023-09-07T01:33:02;18.58;;;17.17;;
82255;SDS011;72145;34.434;-117.370;2023-09-07T01:33:36;17.75;;;16.33;;
82255;SDS011;72145;34.434;-117.370;2023-09-07T01:34:14;19.33;;;17.83;;
82255;SDS011;72145;34.434;-117.370;2023-09-07T01:34:48;17.10;;;15.88;;
82255;SDS011;72145;34.434;-117.370;2023-09-07T01:35:21;16.70;;;15.32;;
82255;SDS011;72145;34.434;-117.370;2023-09-07T01:35:56;17.08;;;15.63;;
82255;SDS011;72145;34.434;-117.370;2023-09-07T01:36:50;15.65;;;14.25;;
82255;SDS011;72145;34.434;-117.370;2023-09-07T01:37:31;18.85;;;15.18;;
82255;SDS011;72145;34.434;-117.370;2023-09-07T01:38:05;11.88;;;9.18;;
82255;SDS011;72145;34.434;-117.370;2023-09-07T01:38:58;13.18;;;11.98;;
82255;SDS011;72145;34.434;-117.370;2023-09-07T01:39:32;14.77;;;13.27;;
82255;SDS011;72145;34.434;-117.370;2023-09-07T01:40:05;9.73;;;8.75;;
82255;SDS011;72145;34.434;-117.370;2023-09-07T01:40:39;11.85;;;10.00;;
82255;SDS011;72145;34.434;-117.370;2023-09-07T01:41:15;13.15;;;11.88;;
82255;SDS011;72145;34.434;-117.370;2023-09-07T01:41:57;15.45;;;14.15;;
82255;SDS011;72145;34.434;-117.370;2023-09-07T01:42:32;9.93;;;7.53;;
82255;SDS011;72145;34.434;-117.370;2023-09-07T01:43:06;9.55;;;8.25;;
82255;SDS011;72145;34.434;-117.370;2023-09-07T01:43:44;13.90;;;8.02;;
82255;SDS011;72145;34.434;-117.370;2023-09-07T01:44:17;10.95;;;9.95;;
82255;SDS011;72145;34.434;-117.370;2023-09-07T01:44:57;12.15;;;11.05;;
82255;SDS011;72145;34.434;-117.370;2023-09-07T01:45:30;8.50;;;6.95;;
82255;SDS011;72145;34.434;-117.370;2023-09-07T01:46:06;7.20;;;6.45;;
82255;SDS011;72145;34.434;-117.370;2023-09-07T01:46:43;8.27;;;6.28;;
82255;SDS011;72145;34.434;-117.370;2023-09-07T01:47:26;7.80;;;6.85;;
82255;SDS011;72145;34.434;-117.370;2023-09-07T01:47:59;7.90;;;7.18;;
82255;SDS011;72145;34.434;-117.370;2023-09-07T01:48:38;9.38;;;6.47;;
82255;SDS011;72145;34.434;-117.370;2023-09-07T01:49:11;7.97;;;7.18;;
82255;SDS011;72145;34.434;-117.370;2023-09-07T01:49:45;9.40;;;6.80;;
82255;SDS011;72145;34.434;-117.370;2023-09-07T01:50:18;8.77;;;6.63;;
82255;SDS011;72145;34.434;-117.370;2023-09-07T01:50:54;7.32;;;5.68;;
82255;SDS011;72145;34.434;-117.370;2023-09-07T01:51:27;9.20;;;7.53;;
82255;SDS011;72145;34.434;-117.370;2023-09-07T01:52:09;8.57;;;6.82;;
82255;SDS011;72145;34.434;-117.370;2023-09-07T01:53:12;9.68;;;8.45;;
82255;SDS011;72145;34.434;-117.370;2023-09-07T01:53:48;13.68;;;12.45;;
82255;SDS011;72145;34.434;-117.370;2023-09-07T01:54:22;10.38;;;9.40;;
82255;SDS011;72145;34.434;-117.370;2023-09-07T01:54:59;8.65;;;6.22;;
82255;SDS011;72145;34.434;-117.370;2023-09-07T01:55:32;8.77;;;7.95;;
82255;SDS011;72145;34.434;-117.370;2023-09-07T01:56:06;11.43;;;7.40;;
82255;SDS011;72145;34.434;-117.370;2023-09-07T01:56:43;10.07;;;7.32;;
82255;SDS011;72145;34.434;-117.370;2023-09-07T01:57:16;9.80;;;8.82;;
82255;SDS011;72145;34.434;-117.370;2023-09-07T01:57:49;10.32;;;9.35;;
82255;SDS011;72145;34.434;-117.370;2023-09-07T01:58:27;13.30;;;12.10;;
82255;SDS011;72145;34.434;-117.370;2023-09-07T01:59:12;17.40;;;16.20;;
82255;SDS011;72145;34.434;-117.370;2023-09-07T01:59:48;23.65;;;21.38;;
82255;SDS011;72145;34.434;-117.370;2023-09-07T02:00:24;13.82;;;12.63;;
82255;SDS011;72145;34.434;-117.370;2023-09-07T02:00:58;14.30;;;12.95;;
82255;SDS011;72145;34.434;-117.370;2023-09-07T02:01:34;14.52;;;13.32;;
82255;SDS011;72145;34.434;-117.370;2023-09-07T02:02:09;13.50;;;12.38;;
82255;SDS011;72145;34.434;-117.370;2023-09-07T02:02:46;16.38;;;15.00;;
82255;SDS011;72145;34.434;-117.370;2023-09-07T02:03:22;17.83;;;16.33;;
82255;SDS011;72145;34.434;-117.370;2023-09-07T02:03:55;18.88;;;17.17;;
82255;SDS011;72145;34.434;-117.370;2023-09-07T02:04:29;16.60;;;15.25;;
82255;SDS011;72145;34.434;-117.370;2023-09-07T02:05:02;16.50;;;15.15;;
82255;SDS011;72145;34.434;-117.370;2023-09-07T02:05:43;18.10;;;16.52;;
82255;SDS011;72145;34.434;-117.370;2023-09-07T02:06:18;21.13;;;19.55;;
82255;SDS011;72145;34.434;-117.370;2023-09-07T02:06:54;18.88;;;17.20;;
82255;SDS011;72145;34.434;-117.370;2023-09-07T02:07:27;13.98;;;12.68;;
82255;SDS011;72145;34.434;-117.370;2023-09-07T02:08:05;14.32;;;12.98;;
82255;SDS011;72145;34.434;-117.370;2023-09-07T02:08:38;15.32;;;13.98;;
82255;SDS011;72145;34.434;-117.370;2023-09-07T02:09:11;16.23;;;14.93;;
82255;SDS011;72145;34.434;-117.370;2023-09-07T02:09:47;13.40;;;12.10;;
82255;SDS011;72145;34.434;-117.370;2023-09-07T02:10:21;14.55;;;13.25;;
82255;SDS011;72145;34.434;-117.370;2023-09-07T02:10:57;11.32;;;10.13;;
82255;SDS011;72145;34.434;-117.370;2023-09-07T02:11:39;13.10;;;10.88;;
82255;SDS011;72145;34.434;-117.370;2023-09-07T02:12:13;14.23;;;13.02;;
82255;SDS011;72145;34.434;-117.370;2023-09-07T02:12:56;12.93;;;11.05;;
82255;SDS011;72145;34.434;-117.370;2023-09-07T02:13:30;13.27;;;11.98;;
82255;SDS011;72145;34.434;-117.370;2023-09-07T02:14:03;12.85;;;11.65;;
82255;SDS011;72145;34.434;-117.370;2023-09-07T02:14:37;13.52;;;12.13;;
82255;SDS011;72145;34.434;-117.370;2023-09-07T02:15:18;22.70;;;21.05;;
82255;SDS011;72145;34.434;-117.370;2023-09-07T02:15:56;21.00;;;17.65;;
82255;SDS011;72145;34.434;-117.370;2023-09-07T02:16:36;19.48;;;18.10;;
82255;SDS011;72145;34.434;-117.370;2023-09-07T02:17:18;9.85;;;8.95;;
82255;SDS011;72145;34.434;-117.370;2023-09-07T02:17:53;10.73;;;9.75;;
82255;SDS011;72145;34.434;-117.370;2023-09-07T02:18:38;12.77;;;11.60;;
82255;SDS011;72145;34.434;-117.370;2023-09-07T02:19:19;11.70;;;10.45;;
82255;SDS011;72145;34.434;-117.370;2023-09-07T02:19:58;12.25;;;11.23;;
82255;SDS011;72145;34.434;-117.370;2023-09-07T02:20:40;12.43;;;11.23;;
82255;SDS011;72145;34.434;-117.370;2023-09-07T02:21:18;11.70;;;10.65;;
82255;SDS011;72145;34.434;-117.370;2023-09-07T02:21:56;12.15;;;10.38;;
82255;SDS011;72145;34.434;-117.370;2023-09-07T02:22:32;11.95;;;8.18;;
82255;SDS011;72145;34.434;-117.370;2023-09-07T02:23:06;9.20;;;7.82;;
82255;SDS011;72145;34.434;-117.370;2023-09-07T02:23:39;9.30;;;7.55;;
82255;SDS011;72145;34.434;-117.370;2023-09-07T02:24:18;9.48;;;8.25;;
82255;SDS011;72145;34.434;-117.370;2023-09-07T02:24:56;8.57;;;7.68;;
82255;SDS011;72145;34.434;-117.370;2023-09-07T02:25:37;8.63;;;7.45;;
82255;SDS011;72145;34.434;-117.370;2023-09-07T02:26:13;9.77;;;7.50;;
82255;SDS011;72145;34.434;-117.370;2023-09-07T02:26:49;10.15;;;7.28;;
82255;SDS011;72145;34.434;-117.370;2023-09-07T02:27:34;12.57;;;8.18;;
82255;SDS011;72145;34.434;-117.370;2023-09-07T02:28:09;9.23;;;8.27;;
82255;SDS011;72145;34.434;-117.370;2023-09-07T02:28:45;10.75;;;8.95;;
82255;SDS011;72145;34.434;-117.370;2023-09-07T02:29:25;9.82;;;8.65;;
82255;SDS011;72145;34.434;-117.370;2023-09-07T02:30:02;10.98;;;9.32;;
82255;SDS011;72145;34.434;-117.370;2023-09-07T02:30:42;9.88;;;8.05;;
82255;SDS011;72145;34.434;-117.370;2023-09-07T02:31:16;12.05;;;8.45;;
82255;SDS011;72145;34.434;-117.370;2023-09-07T02:31:53;11.60;;;9.32;;
82255;SDS011;72145;34.434;-117.370;2023-09-07T02:32:28;9.73;;;8.00;;
82255;SDS011;72145;34.434;-117.370;2023-09-07T02:33:01;11.02;;;7.78;;
82255;SDS011;72145;34.434;-117.370;2023-09-07T02:33:36;14.38;;;8.10;;
82255;SDS011;72145;34.434;-117.370;2023-09-07T02:34:12;10.13;;;8.05;;
82255;SDS011;72145;34.434;-117.370;2023-09-07T02:34:47;8.68;;;7.55;;
82255;SDS011;72145;34.434;-117.370;2023-09-07T02:35:26;9.90;;;7.53;;
82255;SDS011;72145;34.434;-117.370;2023-09-07T02:36:02;18.77;;;10.00;;
82255;SDS011;72145;34.434;-117.370;2023-09-07T02:36:36;16.92;;;9.50;;
82255;SDS011;72145;34.434;-117.370;2023-09-07T02:38:13;10.45;;;8.10;;
82255;SDS011;72145;34.434;-117.370;2023-09-07T02:38:53;10.23;;;8.32;;
82255;SDS011;72145;34.434;-117.370;2023-09-07T02:39:26;11.25;;;8.60;;
82255;SDS011;72145;34.434;-117.370;2023-09-07T02:40:02;11.35;;;9.02;;
82255;SDS011;72145;34.434;-117.370;2023-09-07T02:40:42;12.52;;;10.50;;
82255;SDS011;72145;34.434;-117.370;2023-09-07T02:41:18;10.63;;;9.52;;
82255;SDS011;72145;34.434;-117.370;2023-09-07T02:41:53;21.35;;;19.67;;
82255;SDS011;72145;34.434;-117.370;2023-09-07T02:42:28;20.17;;;18.45;;
82255;SDS011;72145;34.434;-117.370;2023-09-07T02:43:01;19.10;;;17.00;;
82255;SDS011;72145;34.434;-117.370;2023-09-07T02:43:38;19.13;;;17.48;;
82255;SDS011;72145;34.434;-117.370;2023-09-07T02:44:13;17.38;;;15.88;;
82255;SDS011;72145;34.434;-117.370;2023-09-07T02:44:47;19.08;;;17.58;;
82255;SDS011;72145;34.434;-117.370;2023-09-07T02:45:23;20.52;;;18.77;;
82255;SDS011;72145;34.434;-117.370;2023-09-07T02:45:59;20.83;;;19.02;;
82255;SDS011;72145;34.434;-117.370;2023-09-07T02:46:35;18.05;;;16.45;;
82255;SDS011;72145;34.434;-117.370;2023-09-07T02:47:16;14.10;;;12.80;;
82255;SDS011;72145;34.434;-117.370;2023-09-07T02:47:49;16.13;;;14.80;;
82255;SDS011;72145;34.434;-117.370;2023-09-07T02:48:25;15.30;;;14.10;;
82255;SDS011;72145;34.434;-117.370;2023-09-07T02:49:05;18.27;;;16.58;;
82255;SDS011;72145;34.434;-117.370;2023-09-07T02:49:57;16.60;;;15.30;;
82255;SDS011;72145;34.434;-117.370;2023-09-07T02:50:32;18.17;;;16.67;;
82255;SDS011;72145;34.434;-117.370;2023-09-07T02:51:10;19.23;;;17.70;;
82255;SDS011;72145;34.434;-117.370;2023-09-07T02:51:59;20.73;;;19.20;;
82255;SDS011;72145;34.434;-117.370;2023-09-07T02:52:39;22.23;;;20.52;;
82255;SDS011;72145;34.434;-117.370;2023-09-07T02:53:15;21.40;;;19.60;;
82255;SDS011;72145;34.434;-117.370;2023-09-07T02:53:56;20.00;;;18.33;;
82255;SDS011;72145;34.434;-117.370;2023-09-07T02:54:29;21.58;;;19.95;;
82255;SDS011;72145;34.434;-117.370;2023-09-07T02:55:03;23.17;;;21.48;;
82255;SDS011;72145;34.434;-117.370;2023-09-07T02:55:44;22.13;;;20.42;;
82255;SDS011;72145;34.434;-117.370;2023-09-07T02:56:17;21.23;;;19.58;;
82255;SDS011;72145;34.434;-117.370;2023-09-07T02:56:54;21.83;;;19.92;;
82255;SDS011;72145;34.434;-117.370;2023-09-07T02:57:27;18.42;;;16.90;;
82255;SDS011;72145;34.434;-117.370;2023-09-07T02:58:03;19.35;;;17.42;;
82255;SDS011;72145;34.434;-117.370;2023-09-07T02:58:38;17.95;;;16.23;;
82255;SDS011;72145;34.434;-117.370;2023-09-07T02:59:25;18.58;;;16.95;;
82255;SDS011;72145;34.434;-117.370;2023-09-07T02:59:58;20.08;;;18.45;;
82255;SDS011;72145;34.434;-117.370;2023-09-07T03:00:31;19.10;;;17.40;;
82255;SDS011;72145;34.434;-117.370;2023-09-07T03:01:08;20.30;;;18.70;;
82255;SDS011;72145;34.434;-117.370;2023-09-07T03:01:48;22.60;;;20.90;;
82255;SDS011;72145;34.434;-117.370;2023-09-07T03:02:22;24.48;;;22.48;;
82255;SDS011;72145;34.434;-117.370;2023-09-07T03:03:02;26.20;;;24.27;;
82255;SDS011;72145;34.434;-117.370;2023-09-07T03:03:41;23.30;;;21.50;;
82255;SDS011;72145;34.434;-117.370;2023-09-07T03:04:20;19.17;;;17.52;;
82255;SDS011;72145;34.434;-117.370;2023-09-07T03:05:10;15.90;;;14.50;;
82255;SDS011;72145;34.434;-117.370;2023-09-07T03:05:48;14.20;;;12.98;;
82255;SDS011;72145;34.434;-117.370;2023-09-07T03:06:26;15.85;;;14.35;;
82255;SDS011;72145;34.434;-117.370;2023-09-07T03:07:09;18.67;;;17.27;;
82255;SDS011;72145;34.434;-117.370;2023-09-07T03:07:45;21.77;;;19.90;;
82255;SDS011;72145;34.434;-117.370;2023-09-07T03:08:19;18.67;;;17.10;;
82255;SDS011;72145;34.434;-117.370;2023-09-07T03:08:52;17.33;;;15.80;;
82255;SDS011;72145;34.434;-117.370;2023-09-07T03:09:29;21.25;;;19.58;;
82255;SDS011;72145;34.434;-117.370;2023-09-07T03:10:02;17.98;;;16.45;;
82255;SDS011;72145;34.434;-117.370;2023-09-07T03:10:40;19.67;;;18.25;;
82255;SDS011;72145;34.434;-117.370;2023-09-07T03:11:19;13.73;;;12.18;;
82255;SDS011;72145;34.434;-117.370;2023-09-07T03:11:52;18.13;;;16.80;;
82255;SDS011;72145;34.434;-117.370;2023-09-07T03:12:34;17.92;;;16.42;;
82255;SDS011;72145;34.434;-117.370;2023-09-07T03:13:09;20.13;;;18.08;;
82255;SDS011;72145;34.434;-117.370;2023-09-07T03:13:44;18.80;;;17.38;;
82255;SDS011;72145;34.434;-117.370;2023-09-07T03:14:22;16.42;;;14.82;;
82255;SDS011;72145;34.434;-117.370;2023-09-07T03:14:58;16.05;;;14.75;;
82255;SDS011;72145;34.434;-117.370;2023-09-07T03:16:07;18.85;;;17.33;;
82255;SDS011;72145;34.434;-117.370;2023-09-07T03:16:42;14.85;;;13.45;;
82255;SDS011;72145;34.434;-117.370;2023-09-07T03:17:18;14.25;;;12.93;;
82255;SDS011;72145;34.434;-117.370;2023-09-07T03:17:54;16.08;;;14.57;;
82255;SDS011;72145;34.434;-117.370;2023-09-07T03:18:30;16.75;;;15.30;;
82255;SDS011;72145;34.434;-117.370;2023-09-07T03:19:06;17.55;;;16.17;;
82255;SDS011;72145;34.434;-117.370;2023-09-07T03:19:44;15.55;;;14.20;;
82255;SDS011;72145;34.434;-117.370;2023-09-07T03:20:38;16.75;;;15.20;;
82255;SDS011;72145;34.434;-117.370;2023-09-07T03:21:11;17.63;;;16.13;;
82255;SDS011;72145;34.434;-117.370;2023-09-07T03:21:47;15.95;;;14.48;;
82255;SDS011;72145;34.434;-117.370;2023-09-07T03:22:20;15.60;;;14.25;;
82255;SDS011;72145;34.434;-117.370;2023-09-07T03:22:55;14.57;;;13.20;;
82255;SDS011;72145;34.434;-117.370;2023-09-07T03:23:28;14.35;;;13.15;;
82255;SDS011;72145;34.434;-117.370;2023-09-07T03:24:03;14.52;;;13.23;;
82255;SDS011;72145;34.434;-117.370;2023-09-07T03:24:36;14.40;;;13.27;;
82255;SDS011;72145;34.434;-117.370;2023-09-07T03:25:13;14.77;;;13.57;;
82255;SDS011;72145;34.434;-117.370;2023-09-07T03:25:47;14.10;;;12.68;;
82255;SDS011;72145;34.434;-117.370;2023-09-07T03:26:23;14.30;;;13.18;;
82255;SDS011;72145;34.434;-117.370;2023-09-07T03:26:57;19.50;;;18.00;;